createdAt,value
2023-01-29T00:01:22.455Z,60.71
2023-01-29T00:03:24.235Z,60.77
2023-01-29T00:05:28.154Z,61.01
2023-01-29T00:07:30.555Z,60.80
2023-01-29T00:09:32.770Z,60.86
2023-01-29T00:11:35.555Z,60.91
2023-01-29T00:13:37.247Z,61.32
2023-01-29T00:15:41.688Z,61.24
2023-01-29T00:17:43.497Z,60.95
2023-01-29T00:19:45.255Z,61.52
2023-01-29T00:21:47.083Z,61.37
2023-01-29T00:23:49.827Z,61.30
2023-01-29T00:25:51.665Z,61.69
2023-01-29T00:27:53.418Z,61.43
2023-01-29T00:30:05.903Z,61.20
2023-01-29T00:32:07.789Z,62.07
2023-01-29T00:34:09.768Z,62.53
2023-01-29T00:36:14.098Z,62.37
2023-01-29T00:38:15.833Z,62.46
2023-01-29T00:40:17.947Z,62.84
2023-01-29T00:42:29.234Z,62.80
2023-01-29T00:44:40.604Z,62.74
2023-01-29T00:46:42.767Z,62.99
2023-01-29T00:48:44.510Z,62.62
2023-01-29T00:50:46.875Z,62.33
2023-01-29T00:52:49.771Z,62.28
2023-01-29T00:54:53.339Z,62.06
2023-01-29T00:56:55.136Z,62.32
2023-01-29T00:58:57.229Z,62.57
2023-01-29T01:01:01.007Z,62.23
2023-01-29T01:03:05.856Z,62.47
2023-01-29T01:05:16.799Z,62.86
2023-01-29T01:07:18.421Z,62.70
2023-01-29T01:09:30.063Z,62.65
2023-01-29T01:11:33.936Z,62.84
2023-01-29T01:13:35.679Z,62.85
2023-01-29T01:15:39.981Z,62.60
2023-01-29T01:17:41.806Z,62.84
2023-01-29T01:19:43.483Z,62.80
2023-01-29T01:21:48.445Z,62.58
2023-01-29T01:23:52.158Z,62.67
2023-01-29T01:25:56.416Z,62.83
2023-01-29T01:30:00.178Z,63.01
2023-01-29T01:32:02.116Z,62.72
2023-01-29T01:34:03.900Z,63.09
2023-01-29T01:36:09.905Z,63.31
2023-01-29T01:38:12.059Z,63.36
2023-01-29T01:40:18.680Z,63.50
2023-01-29T01:42:20.635Z,63.46
2023-01-29T01:44:41.698Z,63.56
2023-01-29T01:46:43.384Z,63.13
2023-01-29T01:48:47.879Z,63.38
2023-01-29T01:50:53.302Z,63.31
2023-01-29T01:52:59.996Z,62.79
2023-01-29T01:55:02.730Z,63.01
2023-01-29T01:57:11.863Z,62.69
2023-01-29T01:59:18.354Z,63.05
2023-01-29T02:01:29.202Z,62.78
2023-01-29T02:03:41.028Z,63.08
2023-01-29T02:05:52.200Z,63.46
2023-01-29T02:08:04.266Z,63.41
2023-01-29T02:10:14.072Z,62.98
2023-01-29T02:12:17.169Z,63.27
2023-01-29T02:14:19.330Z,64.00
2023-01-29T02:16:22.106Z,63.63
2023-01-29T02:18:23.986Z,63.45
2023-01-29T02:20:28.933Z,63.58
2023-01-29T02:22:55.411Z,63.09
2023-01-29T02:25:16.561Z,63.68
2023-01-29T02:27:28.763Z,63.53
2023-01-29T02:29:48.255Z,63.36
2023-01-29T02:31:58.788Z,63.23
2023-01-29T02:34:08.358Z,63.50
2023-01-29T02:36:21.200Z,62.99
2023-01-29T02:38:42.559Z,63.33
2023-01-29T02:40:52.988Z,63.60
2023-01-29T02:43:08.699Z,63.54
2023-01-29T02:45:15.993Z,63.92
2023-01-29T02:47:25.283Z,63.87
2023-01-29T02:49:42.820Z,63.50
2023-01-29T02:51:55.771Z,63.78
2023-01-29T02:54:06.496Z,63.86
2023-01-29T02:56:15.856Z,63.80
2023-01-29T02:58:26.170Z,63.85
2023-01-29T03:00:33.773Z,64.04
2023-01-29T03:02:46.934Z,63.88
2023-01-29T03:04:55.781Z,64.00
2023-01-29T03:07:03.406Z,63.99
2023-01-29T03:09:10.473Z,64.02
2023-01-29T03:11:14.241Z,63.76
2023-01-29T03:13:20.192Z,63.92
2023-01-29T03:15:29.421Z,63.88
2023-01-29T03:17:47.223Z,64.26
2023-01-29T03:19:49.368Z,64.77
2023-01-29T03:21:59.728Z,64.44
2023-01-29T03:24:13.432Z,64.58
2023-01-29T03:26:28.388Z,64.52
2023-01-29T03:28:40.348Z,64.58
2023-01-29T03:30:58.555Z,65.02
2023-01-29T03:33:07.357Z,64.89
2023-01-29T03:35:13.063Z,65.25
2023-01-29T03:37:19.441Z,64.50
2023-01-29T03:39:21.691Z,64.73
2023-01-29T03:41:34.905Z,65.02
2023-01-29T03:43:46.286Z,64.49
2023-01-29T03:46:08.481Z,64.71
2023-01-29T03:48:15.749Z,64.84
2023-01-29T03:50:29.044Z,64.48
2023-01-29T03:52:45.473Z,64.52
2023-01-29T03:55:01.052Z,64.54
2023-01-29T03:57:16.284Z,64.36
2023-01-29T03:59:31.648Z,63.78
2023-01-29T04:01:47.536Z,64.33
2023-01-29T04:03:56.570Z,64.61
2023-01-29T04:06:11.567Z,64.76
2023-01-29T04:08:21.779Z,64.62
2023-01-29T04:10:27.638Z,64.92
2023-01-29T04:12:36.197Z,64.39
2023-01-29T04:14:39.032Z,64.68
2023-01-29T04:16:46.061Z,64.65
2023-01-29T04:18:48.940Z,64.97
2023-01-29T04:20:51.374Z,64.92
2023-01-29T04:22:53.431Z,64.94
2023-01-29T04:24:55.441Z,65.01
2023-01-29T04:27:14.215Z,64.82
2023-01-29T04:29:33.778Z,64.85
2023-01-29T04:31:49.672Z,64.70
2023-01-29T04:34:02.848Z,64.64
2023-01-29T04:36:20.807Z,64.69
2023-01-29T04:38:23.167Z,64.38
2023-01-29T04:40:40.314Z,64.32
2023-01-29T04:42:47.579Z,64.92
2023-01-29T04:44:59.533Z,65.39
2023-01-29T04:47:11.222Z,65.21
2023-01-29T04:49:17.948Z,65.25
2023-01-29T04:51:34.050Z,65.26
2023-01-29T04:53:46.347Z,65.16
2023-01-29T04:55:54.963Z,65.25
2023-01-29T04:57:59.026Z,64.98
2023-01-29T05:00:08.632Z,65.15
2023-01-29T05:02:12.375Z,64.89
2023-01-29T05:04:18.225Z,65.14
2023-01-29T05:06:21.178Z,65.07
2023-01-29T05:08:25.820Z,65.07
2023-01-29T05:10:28.161Z,65.04
2023-01-29T05:12:31.329Z,65.40
2023-01-29T05:14:34.953Z,65.03
2023-01-29T05:16:43.222Z,65.39
2023-01-29T05:18:45.221Z,65.72
2023-01-29T05:20:48.259Z,65.26
2023-01-29T05:22:50.187Z,65.13
2023-01-29T05:24:51.998Z,64.92
2023-01-29T05:27:04.017Z,65.17
2023-01-29T05:29:05.792Z,65.51
2023-01-29T05:31:09.202Z,65.58
2023-01-29T05:33:15.727Z,65.93
2023-01-29T05:35:17.428Z,65.63
2023-01-29T05:37:19.203Z,65.28
2023-01-29T05:39:21.103Z,65.24
2023-01-29T05:41:22.854Z,64.85
2023-01-29T05:43:25.415Z,64.90
2023-01-29T05:45:27.280Z,65.00
2023-01-29T05:47:29.037Z,65.12
2023-01-29T05:49:30.848Z,65.16
2023-01-29T05:51:32.728Z,64.89
2023-01-29T05:53:34.513Z,65.06
2023-01-29T05:55:36.248Z,64.81
2023-01-29T05:57:39.604Z,64.94
2023-01-29T05:59:41.369Z,64.92
2023-01-29T06:01:43.187Z,64.37
2023-01-29T06:03:45.857Z,64.82
2023-01-29T06:05:47.686Z,64.72
2023-01-29T06:07:49.371Z,65.00
2023-01-29T06:09:51.110Z,64.73
2023-01-29T06:11:52.911Z,64.92
2023-01-29T06:13:54.819Z,64.51
2023-01-29T06:15:56.547Z,64.82
2023-01-29T06:17:58.322Z,64.66
2023-01-29T06:20:00.210Z,64.78
2023-01-29T06:22:01.968Z,65.03
2023-01-29T06:24:04.088Z,64.55
2023-01-29T06:26:11.494Z,64.78
2023-01-29T06:28:13.307Z,64.31
2023-01-29T06:30:15.445Z,64.63
2023-01-29T06:32:17.398Z,64.89
2023-01-29T06:34:19.093Z,64.64
2023-01-29T06:36:20.912Z,64.44
2023-01-29T06:38:22.749Z,64.67
2023-01-29T06:40:24.455Z,64.67
2023-01-29T06:42:28.163Z,64.77
2023-01-29T06:44:29.941Z,63.98
2023-01-29T06:46:31.696Z,63.95
2023-01-29T06:48:33.413Z,64.00
2023-01-29T06:50:35.110Z,63.63
2023-01-29T06:52:36.886Z,64.12
2023-01-29T06:54:38.574Z,64.06
2023-01-29T06:56:40.394Z,63.78
2023-01-29T06:58:43.765Z,63.80
2023-01-29T07:00:45.506Z,63.34
2023-01-29T07:02:50.021Z,63.58
2023-01-29T07:04:51.733Z,63.55
2023-01-29T07:06:53.428Z,64.17
2023-01-29T07:08:55.508Z,63.53
2023-01-29T07:11:01.328Z,64.02
2023-01-29T07:13:03.052Z,63.79
2023-01-29T07:15:05.649Z,63.67
2023-01-29T07:17:07.374Z,63.56
2023-01-29T07:19:09.104Z,63.30
2023-01-29T07:21:10.821Z,63.83
2023-01-29T07:23:13.640Z,64.06
2023-01-29T07:25:15.513Z,64.20
2023-01-29T07:27:17.208Z,63.93
2023-01-29T07:29:18.983Z,64.10
2023-01-29T07:31:21.892Z,64.28
2023-01-29T07:33:23.649Z,64.63
2023-01-29T07:35:25.394Z,64.20
2023-01-29T07:37:27.238Z,64.39
2023-01-29T07:39:28.985Z,64.02
2023-01-29T07:41:30.692Z,64.23
2023-01-29T07:43:32.519Z,64.19
2023-01-29T07:45:36.576Z,63.96
2023-01-29T07:47:38.354Z,64.08
2023-01-29T07:49:40.117Z,63.95
2023-01-29T07:51:41.868Z,63.80
2023-01-29T07:53:45.097Z,63.97
2023-01-29T07:55:46.997Z,63.98
2023-01-29T07:57:54.822Z,63.99
2023-01-29T07:59:56.538Z,64.09
2023-01-29T08:01:58.330Z,64.15
2023-01-29T08:04:00.095Z,64.32
2023-01-29T08:06:04.253Z,64.15
2023-01-29T08:08:07.780Z,64.21
2023-01-29T08:10:10.523Z,64.44
2023-01-29T08:12:12.209Z,64.80
2023-01-29T08:14:13.918Z,64.59
2023-01-29T08:16:15.666Z,64.40
2023-01-29T08:18:17.504Z,64.89
2023-01-29T08:20:20.159Z,64.71
2023-01-29T08:22:22.114Z,65.06
2023-01-29T08:24:31.145Z,64.67
2023-01-29T08:26:43.207Z,65.08
2023-01-29T08:28:44.952Z,65.02
2023-01-29T08:30:46.847Z,65.27
2023-01-29T08:32:48.692Z,65.26
2023-01-29T08:34:50.394Z,65.22
2023-01-29T08:36:53.195Z,65.02
2023-01-29T08:38:54.894Z,65.32
2023-01-29T08:40:56.649Z,65.20
2023-01-29T08:43:02.059Z,64.72
2023-01-29T08:45:05.733Z,65.49
2023-01-29T08:47:07.509Z,66.29
2023-01-29T08:49:09.748Z,65.70
2023-01-29T08:51:11.511Z,66.03
2023-01-29T08:53:13.337Z,65.77
2023-01-29T08:55:15.613Z,66.17
2023-01-29T08:57:17.408Z,66.02
2023-01-29T08:59:19.315Z,66.19
2023-01-29T09:01:21.115Z,66.81
2023-01-29T09:03:22.952Z,66.51
2023-01-29T09:05:24.667Z,66.65
2023-01-29T09:07:26.397Z,66.81
2023-01-29T09:09:28.133Z,67.62
2023-01-29T09:11:29.869Z,67.69
2023-01-29T09:13:31.558Z,67.06
2023-01-29T09:15:33.333Z,67.35
2023-01-29T09:17:35.167Z,67.21
2023-01-29T09:19:36.887Z,67.46
2023-01-29T09:21:38.655Z,67.47
2023-01-29T09:23:40.363Z,67.65
2023-01-29T09:25:43.237Z,67.48
2023-01-29T09:27:45.052Z,67.75
2023-01-29T09:29:46.774Z,67.85
2023-01-29T09:31:48.696Z,67.42
2023-01-29T09:33:50.732Z,67.07
2023-01-29T09:35:52.482Z,67.17
2023-01-29T09:37:54.223Z,67.20
2023-01-29T09:39:56.002Z,67.23
2023-01-29T09:42:09.545Z,67.31
2023-01-29T09:44:21.218Z,67.05
2023-01-29T09:46:35.647Z,66.94
2023-01-29T09:48:38.099Z,67.18
2023-01-29T09:50:44.336Z,67.52
2023-01-29T09:52:52.807Z,67.85
2023-01-29T09:55:06.024Z,67.41
2023-01-29T09:57:16.323Z,67.70
2023-01-29T09:59:22.174Z,67.25
2023-01-29T10:01:37.827Z,67.34
2023-01-29T10:03:59.337Z,67.46
2023-01-29T10:06:11.081Z,67.62
2023-01-29T10:08:29.197Z,67.81
2023-01-29T10:10:47.091Z,67.91
2023-01-29T10:12:59.424Z,67.93
2023-01-29T10:15:12.766Z,67.92
2023-01-29T10:17:17.451Z,67.93
2023-01-29T10:19:29.208Z,67.70
2023-01-29T10:21:32.938Z,68.03
2023-01-29T10:23:39.040Z,68.68
2023-01-29T10:25:45.494Z,69.11
2023-01-29T10:27:51.926Z,69.96
2023-01-29T10:29:55.548Z,70.36
2023-01-29T10:32:05.277Z,71.04
2023-01-29T10:34:21.641Z,70.75
2023-01-29T10:36:32.444Z,70.24
2023-01-29T10:38:34.350Z,70.07
2023-01-29T10:40:49.603Z,70.36
2023-01-29T10:43:00.889Z,70.28
2023-01-29T10:45:13.798Z,70.85
2023-01-29T10:47:29.317Z,70.33
2023-01-29T10:49:34.975Z,70.51
2023-01-29T10:51:57.363Z,70.71
2023-01-29T10:54:01.289Z,70.74
2023-01-29T10:56:22.835Z,70.78
2023-01-29T10:58:36.589Z,71.08
2023-01-29T11:00:40.440Z,70.80
2023-01-29T11:02:46.331Z,71.36
2023-01-29T11:04:50.289Z,71.04
2023-01-29T11:06:54.485Z,71.11
2023-01-29T11:09:12.118Z,70.58
2023-01-29T11:11:15.655Z,70.41
2023-01-29T11:13:18.964Z,70.55
2023-01-29T11:15:31.147Z,70.40
2023-01-29T11:17:33.631Z,70.16
2023-01-29T11:19:42.307Z,69.80
2023-01-29T11:22:01.619Z,70.30
2023-01-29T11:24:14.223Z,70.33
2023-01-29T11:26:24.144Z,70.49
2023-01-29T11:28:41.428Z,70.60
2023-01-29T11:30:45.328Z,70.85
2023-01-29T11:32:52.910Z,70.65
2023-01-29T11:35:03.152Z,70.43
2023-01-29T11:37:20.074Z,70.22
2023-01-29T11:39:24.215Z,70.46
2023-01-29T11:41:27.373Z,70.46
2023-01-29T11:43:31.914Z,70.47
2023-01-29T11:45:40.781Z,70.26
2023-01-29T11:47:43.910Z,70.36
2023-01-29T11:49:50.435Z,70.13
2023-01-29T11:51:56.804Z,70.59
2023-01-29T11:54:02.770Z,70.41
2023-01-29T11:56:17.058Z,70.09
2023-01-29T11:58:30.799Z,70.33
2023-01-29T12:00:36.459Z,70.58
2023-01-29T12:02:46.153Z,71.56
2023-01-29T12:04:51.554Z,71.29
2023-01-29T12:06:54.870Z,71.37
2023-01-29T12:09:00.455Z,71.09
2023-01-29T12:11:21.643Z,72.28
2023-01-29T12:13:28.177Z,72.15
2023-01-29T12:15:31.708Z,72.23
2023-01-29T12:17:39.853Z,71.74
2023-01-29T12:19:52.665Z,72.05
2023-01-29T12:22:03.941Z,71.72
2023-01-29T12:24:21.528Z,71.84
2023-01-29T12:26:31.972Z,72.32
2023-01-29T12:28:47.115Z,72.05
2023-01-29T12:31:08.619Z,71.25
2023-01-29T12:33:27.348Z,71.09
2023-01-29T12:35:37.251Z,71.58
2023-01-29T12:37:51.450Z,71.49
2023-01-29T12:39:53.675Z,70.88
2023-01-29T12:42:06.209Z,70.32
2023-01-29T12:44:18.865Z,70.34
2023-01-29T12:46:35.661Z,70.55
2023-01-29T12:48:43.106Z,70.70
2023-01-29T12:50:47.335Z,70.37
2023-01-29T12:52:52.191Z,70.44
2023-01-29T12:55:01.185Z,70.37
2023-01-29T12:57:08.854Z,70.85
2023-01-29T12:59:18.907Z,71.75
2023-01-29T13:01:29.679Z,71.28
2023-01-29T13:03:40.287Z,71.74
2023-01-29T13:05:48.646Z,72.12
2023-01-29T13:07:57.804Z,71.51
2023-01-29T13:10:11.029Z,71.72
2023-01-29T13:12:17.135Z,71.12
2023-01-29T13:14:25.414Z,71.27
2023-01-29T13:16:33.665Z,71.44
2023-01-29T13:18:42.507Z,71.34
2023-01-29T13:20:46.572Z,71.55
2023-01-29T13:22:50.764Z,71.42
2023-01-29T13:25:03.981Z,71.69
2023-01-29T13:27:07.778Z,71.54
2023-01-29T13:29:24.866Z,70.85
2023-01-29T13:31:32.261Z,70.28
2023-01-29T13:33:34.360Z,70.56
2023-01-29T13:35:42.904Z,70.53
2023-01-29T13:37:54.590Z,70.66
2023-01-29T13:39:58.669Z,70.43
2023-01-29T13:42:03.160Z,70.15
2023-01-29T13:44:08.034Z,70.50
2023-01-29T13:46:14.686Z,69.88
2023-01-29T13:48:27.996Z,69.16
2023-01-29T13:50:41.532Z,69.51
2023-01-29T13:52:55.304Z,68.91
2023-01-29T13:55:02.565Z,69.00
2023-01-29T13:57:04.550Z,69.67
2023-01-29T13:59:07.094Z,69.54
2023-01-29T14:01:09.195Z,69.83
2023-01-29T14:03:11.989Z,70.14
2023-01-29T14:05:30.847Z,70.04
2023-01-29T14:07:45.758Z,69.40
2023-01-29T14:09:48.024Z,69.51
2023-01-29T14:11:50.448Z,70.26
2023-01-29T14:13:52.498Z,69.82
2023-01-29T14:15:57.873Z,69.56
2023-01-29T14:18:11.729Z,70.07
2023-01-29T14:20:32.351Z,69.81
2023-01-29T14:22:40.766Z,70.23
2023-01-29T14:24:43.280Z,70.17
2023-01-29T14:26:48.790Z,70.08
2023-01-29T14:28:56.588Z,69.67
2023-01-29T14:30:59.336Z,70.13
2023-01-29T14:33:03.139Z,69.64
2023-01-29T14:35:18.660Z,70.01
2023-01-29T14:37:29.092Z,70.04
2023-01-29T14:39:36.971Z,69.67
2023-01-29T14:41:38.864Z,69.93
2023-01-29T14:43:40.728Z,69.46
2023-01-29T14:45:44.139Z,69.04
2023-01-29T14:47:47.548Z,69.12
2023-01-29T14:49:54.910Z,68.95
2023-01-29T14:51:59.880Z,69.46
2023-01-29T14:54:19.109Z,69.01
2023-01-29T14:56:27.952Z,68.90
2023-01-29T14:58:49.350Z,69.03
2023-01-29T15:00:55.594Z,67.87
2023-01-29T15:03:02.032Z,68.91
2023-01-29T15:05:11.632Z,68.52
2023-01-29T15:07:23.689Z,68.60
2023-01-29T15:09:36.434Z,69.02
2023-01-29T15:11:58.494Z,69.62
2023-01-29T15:14:08.908Z,69.35
2023-01-29T15:16:21.268Z,69.16
2023-01-29T15:18:42.491Z,69.68
2023-01-29T15:20:44.644Z,70.67
2023-01-29T15:22:46.830Z,70.85
2023-01-29T15:25:05.448Z,71.08
2023-01-29T15:27:14.534Z,71.33
2023-01-29T15:29:25.968Z,72.05
2023-01-29T15:31:29.076Z,71.79
2023-01-29T15:33:32.409Z,71.78
2023-01-29T15:35:37.857Z,72.63
2023-01-29T15:37:40.233Z,72.12
2023-01-29T15:39:44.503Z,72.08
2023-01-29T15:41:47.367Z,72.65
2023-01-29T15:43:56.771Z,72.33
2023-01-29T15:46:02.440Z,72.24
2023-01-29T15:48:08.729Z,72.27
2023-01-29T15:50:13.310Z,72.21
2023-01-29T15:52:23.641Z,71.66
2023-01-29T15:54:30.455Z,71.02
2023-01-29T15:56:41.038Z,71.04
2023-01-29T15:58:43.213Z,70.88
2023-01-29T16:00:54.524Z,71.34
2023-01-29T16:02:58.150Z,70.53
2023-01-29T16:05:00.219Z,70.86
2023-01-29T16:07:03.916Z,70.90
2023-01-29T16:09:07.357Z,70.40
2023-01-29T16:11:09.949Z,70.56
2023-01-29T16:13:22.138Z,70.20
2023-01-29T16:15:34.155Z,70.47
2023-01-29T16:17:40.891Z,70.64
2023-01-29T16:19:42.716Z,70.87
2023-01-29T16:21:46.175Z,71.27
2023-01-29T16:23:52.124Z,70.63
2023-01-29T16:25:56.777Z,71.43
2023-01-29T16:27:58.940Z,71.43
2023-01-29T16:30:02.304Z,71.38
2023-01-29T16:32:06.277Z,71.48
2023-01-29T16:34:24.855Z,71.43
2023-01-29T16:36:28.059Z,72.46
2023-01-29T16:38:33.853Z,72.65
2023-01-29T16:40:38.258Z,72.46
2023-01-29T16:42:41.780Z,72.03
2023-01-29T16:44:57.407Z,72.58
2023-01-29T16:47:11.111Z,72.16
2023-01-29T16:49:25.826Z,71.98
2023-01-29T16:51:32.026Z,72.08
2023-01-29T16:53:35.894Z,72.70
2023-01-29T16:55:41.316Z,72.73
2023-01-29T16:57:47.204Z,73.11
2023-01-29T16:59:52.769Z,72.76
2023-01-29T17:01:55.948Z,72.60
2023-01-29T17:04:05.894Z,73.11
2023-01-29T17:06:20.643Z,73.52
2023-01-29T17:08:25.367Z,73.48
2023-01-29T17:10:29.307Z,73.53
2023-01-29T17:12:33.117Z,73.89
2023-01-29T17:14:38.633Z,73.86
2023-01-29T17:16:50.842Z,73.75
2023-01-29T17:18:52.848Z,74.10
2023-01-29T17:20:54.705Z,73.51
2023-01-29T17:22:56.603Z,73.71
2023-01-29T17:24:58.600Z,74.32
2023-01-29T17:27:02.379Z,74.15
2023-01-29T17:29:04.223Z,74.00
2023-01-29T17:31:07.909Z,74.72
2023-01-29T17:33:13.929Z,74.25
2023-01-29T17:35:17.362Z,74.28
2023-01-29T17:37:20.310Z,73.88
2023-01-29T17:39:24.293Z,74.11
2023-01-29T17:41:29.904Z,74.32
2023-01-29T17:43:31.743Z,74.47
2023-01-29T17:45:34.054Z,73.75
2023-01-29T17:47:35.933Z,74.68
2023-01-29T17:49:38.128Z,74.34
2023-01-29T17:51:40.014Z,74.17
2023-01-29T17:53:45.889Z,74.75
2023-01-29T17:55:49.133Z,75.03
2023-01-29T17:57:50.939Z,74.04
2023-01-29T17:59:52.751Z,74.50
2023-01-29T18:01:54.575Z,74.19
2023-01-29T18:03:56.494Z,73.21
2023-01-29T18:05:58.429Z,73.68
2023-01-29T18:08:00.405Z,73.23
2023-01-29T18:10:02.324Z,72.97
2023-01-29T18:12:04.217Z,73.22
2023-01-29T18:14:13.672Z,72.87
2023-01-29T18:16:18.445Z,72.52
2023-01-29T18:18:22.185Z,72.98
2023-01-29T18:20:26.059Z,73.16
2023-01-29T18:22:28.058Z,72.55
2023-01-29T18:24:31.436Z,72.03
2023-01-29T18:26:33.362Z,71.89
2023-01-29T18:28:35.464Z,71.49
2023-01-29T18:30:37.377Z,72.09
2023-01-29T18:32:39.643Z,70.93
2023-01-29T18:34:41.494Z,71.15
2023-01-29T18:36:47.113Z,70.86
2023-01-29T18:38:48.993Z,70.65
2023-01-29T18:40:50.908Z,70.02
2023-01-29T18:42:52.888Z,69.87
2023-01-29T18:44:54.799Z,69.59
2023-01-29T18:46:56.669Z,69.57
2023-01-29T18:48:58.575Z,70.19
2023-01-29T18:51:00.572Z,69.62
2023-01-29T18:53:04.376Z,70.07
2023-01-29T18:55:07.048Z,69.82
2023-01-29T18:57:14.940Z,69.80
2023-01-29T18:59:17.513Z,69.25
2023-01-29T19:01:19.524Z,68.98
2023-01-29T19:03:21.453Z,69.36
2023-01-29T19:05:24.668Z,68.75
2023-01-29T19:07:27.408Z,69.19
2023-01-29T19:09:29.318Z,68.67
2023-01-29T19:11:31.109Z,68.96
2023-01-29T19:13:33.115Z,68.77
2023-01-29T19:15:35.349Z,68.86
2023-01-29T19:17:41.471Z,68.28
2023-01-29T19:19:43.297Z,68.73
2023-01-29T19:21:45.113Z,68.43
2023-01-29T19:23:47.093Z,68.53
2023-01-29T19:25:49.009Z,68.01
2023-01-29T19:27:50.873Z,68.22
2023-01-29T19:29:53.450Z,67.38
2023-01-29T19:31:55.325Z,67.40
2023-01-29T19:33:57.154Z,67.70
2023-01-29T19:35:59.883Z,66.99
2023-01-29T19:38:01.730Z,67.43
2023-01-29T19:40:03.930Z,67.27
2023-01-29T19:42:05.836Z,66.73
2023-01-29T19:44:07.811Z,66.72
2023-01-29T19:46:10.596Z,67.05
2023-01-29T19:48:13.550Z,66.67
2023-01-29T19:50:15.650Z,67.07
2023-01-29T19:52:49.735Z,66.92
2023-01-29T19:54:52.597Z,66.72
2023-01-29T19:56:54.797Z,67.21
2023-01-29T19:58:57.488Z,66.74
2023-01-29T20:01:01.859Z,66.42
2023-01-29T20:03:03.890Z,66.99
2023-01-29T20:05:07.987Z,66.84
2023-01-29T20:07:09.856Z,66.60
2023-01-29T20:09:12.841Z,67.40
2023-01-29T20:11:16.899Z,66.85
2023-01-29T20:13:19.243Z,67.42
2023-01-29T20:15:22.420Z,67.68
2023-01-29T20:17:24.321Z,66.91
2023-01-29T20:19:26.337Z,66.76
2023-01-29T20:21:28.660Z,66.57
2023-01-29T20:23:37.792Z,66.41
2023-01-29T20:25:40.966Z,66.39
2023-01-29T20:27:42.875Z,66.32
2023-01-29T20:29:46.680Z,66.36
2023-01-29T20:31:48.491Z,66.87
2023-01-29T20:33:50.631Z,66.16
2023-01-29T20:35:55.022Z,66.24
2023-01-29T20:37:57.126Z,66.03
2023-01-29T20:39:58.954Z,66.23
2023-01-29T20:42:00.752Z,66.75
2023-01-29T20:44:02.530Z,66.29
2023-01-29T20:46:04.980Z,67.14
2023-01-29T20:48:08.085Z,66.60
2023-01-29T20:50:11.653Z,67.17
2023-01-29T20:52:13.452Z,66.97
2023-01-29T20:54:15.335Z,67.20
2023-01-29T20:56:17.952Z,66.62
2023-01-29T20:58:19.988Z,66.97
2023-01-29T21:00:22.051Z,66.51
2023-01-29T21:02:23.830Z,67.01
2023-01-29T21:04:25.765Z,67.30
2023-01-29T21:06:29.586Z,66.33
2023-01-29T21:08:31.529Z,67.00
2023-01-29T21:10:33.238Z,67.24
2023-01-29T21:12:35.448Z,66.97
2023-01-29T21:14:37.386Z,66.80
2023-01-29T21:16:39.163Z,67.14
2023-01-29T21:18:41.068Z,67.44
2023-01-29T21:20:42.899Z,66.96
2023-01-29T21:22:45.599Z,67.44
2023-01-29T21:24:47.563Z,67.60
2023-01-29T21:26:49.819Z,67.63
2023-01-29T21:28:51.833Z,67.78
2023-01-29T21:31:03.140Z,67.91
2023-01-29T21:33:05.958Z,67.68
2023-01-29T21:35:08.606Z,67.98
2023-01-29T21:37:10.728Z,67.82
2023-01-29T21:39:23.523Z,68.59
2023-01-29T21:41:45.597Z,68.24
2023-01-29T21:43:47.614Z,67.92
2023-01-29T21:45:56.395Z,68.10
2023-01-29T21:47:58.361Z,68.50
2023-01-29T21:50:00.283Z,68.64
2023-01-29T21:52:02.261Z,68.86
2023-01-29T21:54:04.500Z,68.25
2023-01-29T21:56:06.584Z,68.37
2023-01-29T21:58:08.316Z,68.49
2023-01-29T22:00:16.388Z,68.35
2023-01-29T22:02:18.407Z,68.54
2023-01-29T22:04:20.322Z,68.24
2023-01-29T22:06:22.089Z,68.93
2023-01-29T22:08:23.793Z,68.38
2023-01-29T22:10:25.841Z,68.40
2023-01-29T22:12:28.076Z,68.68
2023-01-29T22:14:29.853Z,68.41
2023-01-29T22:16:31.675Z,68.84
2023-01-29T22:18:33.893Z,68.14
2023-01-29T22:20:36.761Z,68.02
2023-01-29T22:22:38.473Z,68.46
2023-01-29T22:24:40.893Z,68.27
2023-01-29T22:26:42.740Z,68.61
2023-01-29T22:28:44.694Z,68.35
2023-01-29T22:30:46.473Z,68.49
2023-01-29T22:32:48.258Z,68.69
2023-01-29T22:34:50.068Z,68.68
2023-01-29T22:36:51.873Z,68.56
2023-01-29T22:38:53.657Z,68.59
2023-01-29T22:40:57.121Z,69.07
2023-01-29T22:42:58.958Z,69.06
2023-01-29T22:45:00.792Z,68.92
2023-01-29T22:47:02.516Z,69.02
2023-01-29T22:49:04.353Z,69.15
2023-01-29T22:51:16.171Z,69.00
2023-01-29T22:53:17.938Z,69.00
2023-01-29T22:55:19.873Z,69.00
2023-01-29T22:57:21.637Z,69.38
2023-01-29T22:59:23.407Z,69.13
2023-01-29T23:01:28.372Z,69.13
2023-01-29T23:03:30.134Z,68.88
2023-01-29T23:05:31.797Z,69.00
2023-01-29T23:07:33.826Z,69.25
2023-01-29T23:09:35.550Z,69.62
2023-01-29T23:11:37.347Z,69.07
2023-01-29T23:13:40.197Z,69.13
2023-01-29T23:15:42.009Z,69.18
2023-01-29T23:17:45.299Z,69.27
2023-01-29T23:19:47.087Z,68.56
2023-01-29T23:21:48.764Z,68.60
2023-01-29T23:23:52.506Z,69.16
2023-01-29T23:26:08.137Z,69.22
2023-01-29T23:28:09.808Z,69.40
2023-01-29T23:30:12.086Z,69.36
2023-01-29T23:32:17.277Z,69.61
2023-01-29T23:34:19.132Z,70.22
2023-01-29T23:36:21.129Z,70.65
2023-01-29T23:38:23.048Z,70.55
2023-01-29T23:40:24.855Z,70.03
2023-01-29T23:42:26.543Z,70.21
2023-01-29T23:44:28.307Z,70.12
2023-01-29T23:46:30.254Z,70.37
2023-01-29T23:48:32.098Z,70.32
2023-01-29T23:50:33.933Z,70.84
2023-01-29T23:52:35.662Z,71.04
2023-01-29T23:54:37.353Z,71.35
2023-01-29T23:56:39.172Z,71.57
2023-01-29T23:58:41.033Z,71.30
